Time;durP1;ratioP1;P1;durP2;ratioP2;P2;SDS_P1;SDS_P2;PMS_P1;PMS_P2;Temp;Humidity;BMP_temperature;BMP_pressure;BME280_temperature;BME280_humidity;BME280_pressure;Samples;Min_cycle;Max_cycle;Signal;HPM_P1;HPM_P2
2022/09/21 12:26:01;;;;;;;4.25;0.75;;;17.90;1.00;;;;;;4794301;29;20044;-91
2022/09/21 12:28:59;;;;;;;3.38;0.57;;;18.10;1.00;;;;;;4778111;30;20047;-91
2022/09/21 12:32:48;;;;;;;;;;;;;;;;;;;;;
2022/09/21 12:56:14;;;;;;;1.30;0.45;;;18.60;1.00;;;;;;4774995;29;20059;-93
2022/09/21 13:00:14;;;;;;;1.77;0.30;;;18.70;1.00;;;;;;4777334;30;20142;-93
2022/09/21 13:04:15;;;;;;;2.70;0.40;;;18.80;1.00;;;;;;4770447;30;20047;-93
2022/09/21 13:08:02;;;;;;;;;;;;;;;;;;;;;
2022/09/21 14:22:10;;;;;;;3.10;0.38;;;20.40;1.00;;;;;;5487479;24;20058;-94
2022/09/21 14:24:51;;;;;;;1.83;0.63;;;20.50;1.00;;;;;;4806829;29;20051;-91
2022/09/21 14:39:55;;;;;;;3.03;0.40;;;21.20;1.00;;;;;;4787359;30;20120;-91
2022/09/21 14:47:52;;;;;;;;;;;;;;;;;;;;;
2022/09/21 14:55:36;;;;;;;2.00;0.45;;;21.90;1.00;;;;;;4751462;30;20048;-90
2022/09/21 14:59:20;;;;;;;0.88;0.22;;;22.10;1.00;;;;;;4688143;30;20621;-91
2022/09/21 15:03:26;;;;;;;;;;;;;;;;;;;;;
2022/09/21 15:13:03;;;;;;;0.93;0.52;;;22.50;1.00;;;;;;4776586;29;20060;-90
2022/09/21 15:15:41;;;;;;;1.35;0.20;;;22.60;1.00;;;;;;4751123;30;20139;-92
2022/09/21 15:18:47;;;;;;;2.10;0.40;;;22.60;1.00;;;;;;4737315;30;20060;-92
2022/09/21 15:22:27;;;;;;;1.17;0.43;;;22.70;1.00;;;;;;4723786;30;20060;-92
2022/09/21 15:25:18;;;;;;;1.52;0.40;;;22.50;1.00;;;;;;4736739;30;20139;-91
2022/09/21 15:28:11;;;;;;;0.68;0.38;;;22.30;1.00;;;;;;4725899;29;20064;-91
2022/09/21 15:30:50;;;;;;;2.40;0.70;;;22.40;1.00;;;;;;4792530;29;20123;-91
2022/09/21 15:33:33;;;;;;;1.25;0.55;;;22.30;1.00;;;;;;4805934;29;20046;-91
2022/09/21 15:39:59;;;;;;;0.63;0.35;;;22.10;1.00;;;;;;4812097;29;20047;-92
2022/09/21 15:42:59;;;;;;;2.47;0.50;;;22.00;1.00;;;;;;4806095;29;20096;-90
2022/09/21 15:45:54;;;;;;;3.60;0.55;;;21.90;1.00;;;;;;4791789;29;20494;-90
2022/09/21 15:48:34;;;;;;;2.78;0.38;;;21.80;1.00;;;;;;4790763;29;20058;-91
2022/09/21 15:51:13;;;;;;;3.20;0.40;;;21.60;1.00;;;;;;4791736;29;20054;-91
2022/09/21 15:54:26;;;;;;;2.47;0.60;;;21.50;1.00;;;;;;4791818;29;20073;-91
2022/09/21 15:56:55;;;;;;;1.45;0.63;;;21.50;1.00;;;;;;4791569;29;20149;-91
2022/09/21 16:03:24;;;;;;;0.85;0.20;;;21.30;1.00;;;;;;4802868;29;20134;-91
2022/09/21 16:06:22;;;;;;;1.20;0.40;;;21.10;1.00;;;;;;4806201;29;20494;-91
2022/09/21 16:09:47;;;;;;;1.85;0.55;;;21.10;1.00;;;;;;4807930;29;20130;-91
2022/09/21 16:12:39;;;;;;;1.13;0.50;;;21.00;1.00;;;;;;4808836;29;20055;-91
2022/09/21 16:15:32;;;;;;;1.70;0.50;;;20.90;1.00;;;;;;4809018;29;20053;-91
2022/09/21 16:18:34;;;;;;;0.98;0.40;;;20.80;1.00;;;;;;4795095;29;20086;-90
2022/09/21 16:21:31;;;;;;;1.55;0.45;;;20.70;1.00;;;;;;4808978;29;20051;-90
2022/09/21 16:24:21;;;;;;;1.05;0.60;;;20.60;1.00;;;;;;4795737;29;20062;-91
2022/09/21 16:27:03;;;;;;;1.73;0.30;;;20.50;1.00;;;;;;4796230;29;20047;-91
2022/09/21 16:29:56;;;;;;;2.15;0.40;;;20.40;1.00;;;;;;4797077;29;20425;-91
2022/09/21 16:32:42;;;;;;;1.10;0.40;;;20.40;1.00;;;;;;4794051;29;20047;-90
2022/09/21 16:35:25;;;;;;;2.15;0.38;;;20.30;1.00;;;;;;4808673;29;20058;-91
2022/09/21 16:38:01;;;;;;;0.90;0.30;;;20.20;1.00;;;;;;4808327;29;20061;-91
2022/09/21 16:40:38;;;;;;;1.13;0.30;;;20.10;1.00;;;;;;4808266;29;20406;-90
2022/09/21 16:43:09;;;;;;;2.03;0.30;;;20.10;1.00;;;;;;4793542;29;20061;-91
2022/09/21 16:45:42;;;;;;;2.10;0.52;;;20.00;1.00;;;;;;4808084;29;20565;-91
2022/09/21 16:48:16;;;;;;;1.25;0.35;;;19.90;1.00;;;;;;4793708;29;20058;-91
2022/09/21 16:50:53;;;;;;;3.80;0.77;;;19.80;1.00;;;;;;4794199;29;20066;-90
2022/09/21 16:53:30;;;;;;;2.72;0.90;;;19.80;1.00;;;;;;4808541;29;20061;-92
2022/09/21 16:56:22;;;;;;;2.45;0.25;;;19.70;1.00;;;;;;4794465;29;20059;-92
2022/09/21 16:58:56;;;;;;;0.88;0.40;;;19.60;1.00;;;;;;4793758;29;20149;-92
2022/09/21 17:01:28;;;;;;;1.75;0.80;;;19.50;1.00;;;;;;4808113;29;20059;-91
2022/09/21 17:04:05;;;;;;;1.25;0.40;;;19.50;1.00;;;;;;4808727;29;20070;-90
2022/09/21 17:06:38;;;;;;;2.28;1.05;;;19.40;1.00;;;;;;4808561;29;20047;-91
2022/09/21 17:09:27;;;;;;;1.45;0.43;;;19.40;1.00;;;;;;4794383;29;20050;-92
2022/09/21 17:12:08;;;;;;;0.82;0.50;;;19.30;1.00;;;;;;4793553;29;20062;-91
2022/09/21 17:14:52;;;;;;;0.65;0.25;;;19.30;1.00;;;;;;4807941;29;20422;-92
2022/09/21 17:17:31;;;;;;;1.17;0.43;;;19.20;1.00;;;;;;4794111;29;20050;-90
2022/09/21 17:20:34;;;;;;;2.70;1.38;;;19.20;1.00;;;;;;4807217;29;20055;-90
2022/09/21 17:27:48;;;;;;;0.93;0.40;;;19.10;1.00;;;;;;4791780;30;20061;-90
2022/09/21 17:38:02;;;;;;;0.85;0.30;;;18.90;1.00;;;;;;4980665;24;20054;-89
2022/09/21 18:42:19;;;;;;;2.30;1.50;;;17.60;1.00;;;;;;5849984;24;20029;31
